Belle Vernon, Ohio
Current Conditions -  °F | °C
As of 3:22 PM on Sunday 25 Jan 2015 (Local Time) from KMNN Reporting Station
Light Snow Light Snow  
Wind Chill: 17°   Ceiling: 1900
Heat Index: 29°   Visibility: 0.75mi
Dew Point: 26°   Wind: 17mph
Humidity: 89%   Direction: 50°NE
Pressure: 29.74"   Gusts: NA
Location:  40.948°N, 83.1346°W
Report Text: KMNN 252022Z AUTO 05015KT 3/4SM -SN BR FEW009 BKN019 OVC036 M02/M03 A2974 RMK AO2 P0000 T10171033 TSNO
Loading
Personal Weather Stations






























Interactive Weather Map New forecast layout! Learn more

10-Day Weather Forecast

Advertisements
Track Severe Weather on mobile